Time;durP1;ratioP1;P1;durP2;ratioP2;P2;SDS_P1;SDS_P2;PMS_P1;PMS_P2;Temp;Humidity;BMP_temperature;BMP_pressure;BME280_temperature;BME280_humidity;BME280_pressure;Samples;Min_cycle;Max_cycle;Signal;HPM_P1;HPM_P2
2022/11/02 00:00:23;;;;;;;;;;;;;;;13.41;66.59;99170.84;4475436;32;20382;-81
2022/11/02 00:02:49;;;;;;;;;;;;;;;13.78;65.44;99164.16;4482617;31;20023;-82
2022/11/02 00:05:14;;;;;;;;;;;;;;;13.63;65.81;99162.44;4473404;31;19986;-81
2022/11/02 00:07:40;;;;;;;;;;;;;;;13.81;65.18;99158.69;4493196;31;20016;-81
2022/11/02 00:10:06;;;;;;;;;;;;;;;13.96;64.76;99167.44;4493491;31;19987;-81
2022/11/02 00:12:31;;;;;;;;;;;;;;;13.71;65.94;99171.63;4471742;32;20040;-81
2022/11/02 00:14:56;;;;;;;;;;;;;;;13.48;66.83;99170.37;4486643;31;20266;-82
2022/11/02 00:17:21;;;;;;;;;;;;;;;13.44;66.93;99168.00;4481750;32;19983;-82
2022/11/02 00:19:47;;;;;;;;;;;;;;;13.59;66.55;99160.94;4476118;31;19994;-81
2022/11/02 00:22:12;;;;;;;;;;;;;;;13.64;66.47;99169.47;4489184;31;20034;-81
2022/11/02 00:24:37;;;;;;;;;;;;;;;13.87;65.49;99179.47;4497819;31;19992;-81
2022/11/02 00:27:02;;;;;;;;;;;;;;;13.99;65.16;99174.38;4486801;31;20327;-81
2022/11/02 00:29:28;;;;;;;;;;;;;;;14.04;64.91;99166.97;4481045;32;19971;-81
2022/11/02 00:31:53;;;;;;;;;;;;;;;14.12;64.58;99170.84;4490728;31;19983;-82
2022/11/02 00:34:18;;;;;;;;;;;;;;;14.21;64.24;99165.91;4488309;31;19980;-80
2022/11/02 00:36:44;;;;;;;;;;;;;;;14.23;64.17;99162.22;4482049;31;20007;-81
2022/11/02 00:39:09;;;;;;;;;;;;;;;14.26;63.96;99167.31;4487849;31;19987;-80
2022/11/02 00:41:34;;;;;;;;;;;;;;;14.32;63.84;99166.09;4493680;31;20024;-80
2022/11/02 00:43:59;;;;;;;;;;;;;;;14.35;63.73;99168.53;4472534;32;20070;-81
2022/11/02 00:46:25;;;;;;;;;;;;;;;14.32;63.92;99172.22;4468036;32;19992;-80
2022/11/02 00:48:50;;;;;;;;;;;;;;;14.39;63.75;99172.72;4469316;31;20271;-80
2022/11/02 00:51:16;;;;;;;;;;;;;;;14.36;63.67;99171.09;4489204;31;19979;-81
2022/11/02 00:53:41;;;;;;;;;;;;;;;14.24;64.08;99166.56;4491979;31;19994;-81
2022/11/02 00:56:06;;;;;;;;;;;;;;;14.08;65.11;99165.81;4493283;31;20006;-80
2022/11/02 00:58:32;;;;;;;;;;;;;;;13.65;66.79;99157.91;4471599;32;20314;-81
2022/11/02 01:00:57;;;;;;;;;;;;;;;13.88;66.16;99161.78;4482341;31;20028;-80
2022/11/02 01:03:22;;;;;;;;;;;;;;;14.10;65.24;99161.28;4475500;31;20040;-79
2022/11/02 01:05:47;;;;;;;;;;;;;;;13.96;65.56;99167.44;4491603;31;20050;-80
2022/11/02 01:08:13;;;;;;;;;;;;;;;14.06;65.26;99163.31;4478790;31;20448;-81
2022/11/02 01:10:38;;;;;;;;;;;;;;;14.02;65.65;99172.34;4486433;31;19992;-81
2022/11/02 01:13:04;;;;;;;;;;;;;;;13.78;66.57;99172.09;4482973;32;20312;-81
2022/11/02 01:15:30;;;;;;;;;;;;;;;13.35;68.22;99180.00;4490080;31;20353;-80
2022/11/02 01:17:55;;;;;;;;;;;;;;;13.81;66.66;99177.22;4476585;32;19984;-81
2022/11/02 01:20:20;;;;;;;;;;;;;;;13.71;67.21;99178.72;4481458;31;20049;-80
2022/11/02 01:22:45;;;;;;;;;;;;;;;13.58;67.89;99170.69;4471647;31;20004;-81
2022/11/02 01:25:11;;;;;;;;;;;;;;;13.72;67.54;99170.69;4481676;32;19999;-80
2022/11/02 01:27:36;;;;;;;;;;;;;;;13.79;67.38;99175.59;4489518;31;19980;-81
2022/11/02 01:30:02;;;;;;;;;;;;;;;13.98;66.60;99159.41;4475250;32;20040;-80
2022/11/02 01:32:29;;;;;;;;;;;;;;;13.85;67.12;99154.91;4481850;31;19971;-81
2022/11/02 01:34:54;;;;;;;;;;;;;;;14.07;66.37;99146.44;4471539;31;19990;-80
2022/11/02 01:37:19;;;;;;;;;;;;;;;14.06;66.23;99149.19;4480410;32;19983;-80
2022/11/02 01:39:45;;;;;;;;;;;;;;;14.14;66.10;99146.91;4477243;31;19979;-81
2022/11/02 01:42:20;;;;;;;;;;;;;;;14.17;65.78;99141.41;4487328;31;20006;-80
2022/11/02 01:44:46;;;;;;;;;;;;;;;14.21;65.80;99140.25;4497338;31;19968;-80
2022/11/02 01:47:31;;;;;;;;;;;;;;;14.32;65.39;99139.59;4473698;31;20014;-81
2022/11/02 01:50:10;;;;;;;;;;;;;;;14.43;65.09;99147.69;4472592;31;19999;-81
2022/11/02 01:52:36;;;;;;;;;;;;;;;13.92;67.09;99152.69;4452089;31;20728;-81
2022/11/02 01:55:12;;;;;;;;;;;;;;;14.17;66.06;99144.06;4483960;32;19991;-80
2022/11/02 01:57:38;;;;;;;;;;;;;;;14.23;66.08;99142.81;4491573;31;20010;-80
2022/11/02 02:00:04;;;;;;;;;;;;;;;14.09;66.69;99144.53;4486331;31;20006;-80
2022/11/02 02:02:29;;;;;;;;;;;;;;;13.92;67.38;99150.91;4489664;31;20275;-80
2022/11/02 02:04:57;;;;;;;;;;;;;;;13.89;67.72;99156.41;4487519;31;19992;-80
2022/11/02 02:07:23;;;;;;;;;;;;;;;14.05;67.01;99155.44;4481526;32;20003;-80
2022/11/02 02:09:48;;;;;;;;;;;;;;;13.94;67.62;99146.34;4478632;31;19995;-80
2022/11/02 02:12:13;;;;;;;;;;;;;;;14.13;66.88;99142.56;4476910;32;19988;-81
2022/11/02 02:14:39;;;;;;;;;;;;;;;14.20;66.45;99141.22;4497616;31;20241;-80
2022/11/02 02:17:17;;;;;;;;;;;;;;;14.13;66.68;99145.22;4489460;31;19998;-80
2022/11/02 02:19:48;;;;;;;;;;;;;;;14.08;66.56;99141.97;4493722;31;20014;-80
2022/11/02 02:22:17;;;;;;;;;;;;;;;13.98;67.30;99147.00;4481291;31;19990;-80
2022/11/02 02:24:42;;;;;;;;;;;;;;;13.86;68.06;99147.78;4490524;31;19983;-81
2022/11/02 02:27:21;;;;;;;;;;;;;;;14.11;67.06;99145.28;4474527;31;20374;-80
2022/11/02 02:30:03;;;;;;;;;;;;;;;13.84;68.23;99144.38;4481181;31;19999;-80
2022/11/02 02:32:35;;;;;;;;;;;;;;;13.80;68.51;99154.31;4461137;32;21026;-80
2022/11/02 02:35:08;;;;;;;;;;;;;;;14.19;67.05;99158.06;4487356;31;20349;-80
2022/11/02 02:37:34;;;;;;;;;;;;;;;14.35;66.40;99153.50;4481176;32;20041;-80
2022/11/02 02:40:02;;;;;;;;;;;;;;;14.32;66.63;99156.31;4479754;31;20026;-80
2022/11/02 02:42:29;;;;;;;;;;;;;;;14.40;66.36;99160.28;4475308;32;20354;-81
2022/11/02 02:44:57;;;;;;;;;;;;;;;14.37;66.32;99161.34;4483726;31;20020;-80
2022/11/02 02:47:22;;;;;;;;;;;;;;;14.04;67.80;99169.63;4490823;31;19991;-81
2022/11/02 02:49:50;;;;;;;;;;;;;;;13.40;70.05;99169.97;4478560;32;20031;-80
2022/11/02 02:52:15;;;;;;;;;;;;;;;13.59;69.47;99164.44;4495030;31;20002;-80
2022/11/02 02:54:41;;;;;;;;;;;;;;;13.64;69.78;99165.00;4472802;31;20004;-80
2022/11/02 02:57:07;;;;;;;;;;;;;;;13.73;68.72;99159.16;4482766;32;20028;-80
2022/11/02 02:59:34;;;;;;;;;;;;;;;13.99;68.31;99169.09;4476104;31;19984;-79
2022/11/02 03:01:59;;;;;;;;;;;;;;;14.30;67.11;99165.34;4477905;32;19964;-80
2022/11/02 03:04:24;;;;;;;;;;;;;;;14.32;66.83;99176.69;4482218;31;19963;-80
2022/11/02 03:06:54;;;;;;;;;;;;;;;14.52;66.24;99183.34;4471313;31;20341;-80
2022/11/02 03:09:19;;;;;;;;;;;;;;;14.62;65.97;99175.69;4496147;31;19984;-80
2022/11/02 03:12:05;;;;;;;;;;;;;;;14.66;65.82;99182.47;4490668;31;20030;-81
2022/11/02 03:14:32;;;;;;;;;;;;;;;14.68;65.71;99191.19;4473532;32;19986;-80
2022/11/02 03:17:00;;;;;;;;;;;;;;;14.79;65.28;99187.84;4484020;31;20350;-80
2022/11/02 03:19:26;;;;;;;;;;;;;;;14.85;65.01;99195.41;4490776;31;19987;-81
2022/11/02 03:21:56;;;;;;;;;;;;;;;14.89;64.82;99194.25;4492016;31;20357;-80
2022/11/02 03:24:29;;;;;;;;;;;;;;;14.77;65.07;99195.91;4481762;31;19995;-81
2022/11/02 03:27:10;;;;;;;;;;;;;;;14.82;64.89;99195.63;4468953;32;19984;-80
2022/11/02 03:29:37;;;;;;;;;;;;;;;14.75;64.82;99197.81;4461216;32;20008;-80
2022/11/02 03:32:06;;;;;;;;;;;;;;;14.68;65.04;99204.44;4461807;32;19988;-81
2022/11/02 03:34:31;;;;;;;;;;;;;;;14.54;65.49;99200.87;4456094;32;19963;-79
2022/11/02 03:37:01;;;;;;;;;;;;;;;14.67;65.04;99216.03;4465105;32;20284;-79
2022/11/02 03:39:34;;;;;;;;;;;;;;;14.61;65.30;99221.72;4459692;32;19984;-80
2022/11/02 03:41:59;;;;;;;;;;;;;;;14.75;64.84;99219.84;4457317;32;19973;-79
2022/11/02 03:44:25;;;;;;;;;;;;;;;14.82;64.61;99220.34;4464818;32;20012;-80
2022/11/02 03:46:51;;;;;;;;;;;;;;;14.80;64.72;99221.38;4453363;32;20088;-81
2022/11/02 03:49:17;;;;;;;;;;;;;;;14.86;64.59;99215.69;4463473;32;19972;-80
2022/11/02 03:51:42;;;;;;;;;;;;;;;14.93;64.47;99217.84;4458877;32;20031;-80
2022/11/02 03:54:10;;;;;;;;;;;;;;;14.83;64.50;99214.06;4457922;32;19972;-80
2022/11/02 03:56:36;;;;;;;;;;;;;;;14.68;64.80;99210.63;4452658;32;20411;-80
2022/11/02 03:59:02;;;;;;;;;;;;;;;14.91;64.36;99200.28;4455377;32;19980;-80
2022/11/02 04:01:27;;;;;;;;;;;;;;;14.98;64.19;99201.59;4462846;32;19992;-80
2022/11/02 04:03:53;;;;;;;;;;;;;;;15.00;64.15;99197.03;4459606;32;19984;-80
2022/11/02 04:06:18;;;;;;;;;;;;;;;15.06;64.02;99188.66;4458914;32;19976;-81
2022/11/02 04:08:45;;;;;;;;;;;;;;;15.10;63.94;99184.00;4462474;32;19980;-80
2022/11/02 04:16:39;;;;;;;;;;;;;;;15.16;63.85;99207.47;4465035;32;19991;-80
2022/11/02 04:27:16;;;;;;;;;;;;;;;14.88;65.17;99229.69;4462481;32;20267;-80
2022/11/02 04:29:42;;;;;;;;;;;;;;;14.78;65.42;99231.25;4484646;32;19984;-81
2022/11/02 04:32:10;;;;;;;;;;;;;;;14.01;68.08;99239.53;4480054;31;19979;-80
2022/11/02 04:34:35;;;;;;;;;;;;;;;14.43;67.25;99236.94;4486708;31;19959;-80
2022/11/02 04:38:39;;;;;;;;;;;;;;;14.82;65.73;99235.41;4497121;31;20275;-80
2022/11/02 04:39:46;;;;;;;;;;;;;;;14.92;65.31;99233.84;4480330;31;19983;-81
2022/11/02 04:42:11;;;;;;;;;;;;;;;15.04;64.92;99234.84;4489704;31;20292;-80
2022/11/02 04:44:37;;;;;;;;;;;;;;;15.10;64.77;99235.31;4483203;31;19959;-80
2022/11/02 04:47:02;;;;;;;;;;;;;;;15.13;64.70;99242.19;4498934;31;19975;-81
2022/11/02 04:49:27;;;;;;;;;;;;;;;15.17;64.61;99241.03;4502439;31;20312;-81
2022/11/02 04:51:52;;;;;;;;;;;;;;;15.19;64.57;99246.25;4502298;31;20012;-81
2022/11/02 04:54:18;;;;;;;;;;;;;;;15.22;64.45;99244.25;4474345;31;19998;-81
2022/11/02 04:56:43;;;;;;;;;;;;;;;15.21;64.21;99242.53;4486474;31;20012;-82
2022/11/02 04:59:11;;;;;;;;;;;;;;;15.17;64.34;99249.00;4502317;31;19967;-81
2022/11/02 05:01:37;;;;;;;;;;;;;;;15.22;64.34;99259.31;4488262;31;19983;-82
2022/11/02 05:04:02;;;;;;;;;;;;;;;15.21;64.40;99253.16;4488085;31;19967;-82
2022/11/02 05:06:27;;;;;;;;;;;;;;;15.24;64.34;99254.75;4502451;31;20010;-82
2022/11/02 05:08:56;;;;;;;;;;;;;;;15.26;64.31;99258.12;4488025;31;20028;-81
2022/11/02 05:11:21;;;;;;;;;;;;;;;15.14;64.65;99257.16;4501294;31;20336;-82
2022/11/02 05:13:46;;;;;;;;;;;;;;;15.01;65.17;99262.44;4486738;31;19983;-83
2022/11/02 05:16:12;;;;;;;;;;;;;;;14.88;65.55;99249.09;4502240;31;19987;-81
2022/11/02 05:18:37;;;;;;;;;;;;;;;15.06;65.10;99257.66;4502511;31;19994;-82
2022/11/02 05:21:03;;;;;;;;;;;;;;;14.55;67.10;99260.06;4504327;31;20025;-82
2022/11/02 05:23:28;;;;;;;;;;;;;;;14.73;66.31;99256.25;4504376;31;19963;-79
2022/11/02 05:25:54;;;;;;;;;;;;;;;14.86;65.90;99250.16;4499188;31;19992;-81
2022/11/02 05:28:19;;;;;;;;;;;;;;;14.91;66.04;99254.22;4474215;32;19992;-82
2022/11/02 05:30:45;;;;;;;;;;;;;;;14.37;67.76;99256.78;4486870;32;20285;-82
2022/11/02 05:33:10;;;;;;;;;;;;;;;14.73;67.01;99258.06;4486971;32;20002;-82
2022/11/02 05:35:35;;;;;;;;;;;;;;;14.59;67.40;99264.25;4487128;32;20324;-81
2022/11/02 05:38:01;;;;;;;;;;;;;;;14.59;67.70;99266.88;4488332;32;19995;-82
2022/11/02 05:40:26;;;;;;;;;;;;;;;14.20;69.45;99262.25;4487106;32;20026;-82
2022/11/02 05:42:54;;;;;;;;;;;;;;;14.68;67.60;99268.09;4488315;32;20012;-82
2022/11/02 05:45:19;;;;;;;;;;;;;;;14.81;67.13;99252.25;4486944;32;19991;-82
2022/11/02 05:47:44;;;;;;;;;;;;;;;14.86;66.83;99266.06;4488270;32;19975;-82
2022/11/02 05:50:09;;;;;;;;;;;;;;;15.08;66.08;99266.38;4487982;32;19990;-82
2022/11/02 05:52:35;;;;;;;;;;;;;;;15.17;65.80;99256.97;4488034;31;19964;-82
2022/11/02 05:55:00;;;;;;;;;;;;;;;15.16;65.78;99260.56;4488173;31;20274;-83
2022/11/02 05:57:26;;;;;;;;;;;;;;;15.29;65.43;99263.25;4487050;32;19998;-82
2022/11/02 05:59:51;;;;;;;;;;;;;;;15.33;65.31;99257.62;4488103;32;19998;-82
2022/11/02 06:02:16;;;;;;;;;;;;;;;15.32;65.32;99261.25;4488149;32;20035;-82
2022/11/02 06:04:44;;;;;;;;;;;;;;;15.40;65.06;99258.09;4488230;32;19971;-82
2022/11/02 06:07:09;;;;;;;;;;;;;;;15.39;65.12;99267.00;4488127;31;19976;-82
2022/11/02 06:09:35;;;;;;;;;;;;;;;15.34;65.13;99256.69;4486602;32;20271;-82
2022/11/02 06:12:00;;;;;;;;;;;;;;;15.43;64.94;99255.25;4487866;31;20005;-82
2022/11/02 06:14:26;;;;;;;;;;;;;;;15.49;64.81;99252.16;4487979;31;20019;-82
2022/11/02 06:16:51;;;;;;;;;;;;;;;15.50;64.82;99255.66;4488008;32;19988;-82
2022/11/02 06:19:16;;;;;;;;;;;;;;;15.25;65.78;99259.09;4487839;32;20060;-82
2022/11/02 06:21:41;;;;;;;;;;;;;;;15.39;65.49;99255.53;4487995;32;19972;-82
2022/11/02 06:24:07;;;;;;;;;;;;;;;15.28;65.95;99254.44;4486910;32;20260;-81
2022/11/02 06:26:32;;;;;;;;;;;;;;;15.47;65.42;99251.41;4487891;31;19984;-81
2022/11/02 06:28:58;;;;;;;;;;;;;;;15.54;65.33;99258.00;4488051;32;20001;-82
2022/11/02 06:31:23;;;;;;;;;;;;;;;15.53;65.43;99258.12;4486986;32;19990;-81
2022/11/02 06:33:49;;;;;;;;;;;;;;;15.46;65.75;99255.00;4487831;31;19995;-81
2022/11/02 06:36:14;;;;;;;;;;;;;;;15.18;66.87;99257.81;4486708;32;19984;-82
2022/11/02 06:38:40;;;;;;;;;;;;;;;15.44;66.14;99264.03;4486695;32;19972;-82
2022/11/02 06:41:06;;;;;;;;;;;;;;;14.96;68.11;99264.53;4486484;32;19967;-82
2022/11/02 06:43:32;;;;;;;;;;;;;;;15.45;66.40;99271.91;4473442;32;20346;-80
2022/11/02 06:45:57;;;;;;;;;;;;;;;15.56;66.16;99271.19;4473351;32;20002;-83
2022/11/02 06:48:23;;;;;;;;;;;;;;;15.22;67.80;99272.56;4487843;31;19972;-82
2022/11/02 06:50:48;;;;;;;;;;;;;;;15.38;67.03;99275.09;4486443;32;19964;-82
2022/11/02 06:53:13;;;;;;;;;;;;;;;15.39;66.43;99269.66;4487754;32;20225;-82
2022/11/02 06:55:38;;;;;;;;;;;;;;;15.70;65.78;99267.59;4487893;32;19980;-82
2022/11/02 06:58:04;;;;;;;;;;;;;;;15.86;65.48;99276.25;4487856;32;19967;-82
2022/11/02 07:00:29;;;;;;;;;;;;;;;16.02;65.08;99283.16;4487645;31;19964;-82
2022/11/02 07:03:01;;;;;;;;;;;;;;;16.16;64.80;99282.19;4487714;31;20254;-82
2022/11/02 07:05:27;;;;;;;;;;;;;;;16.25;64.67;99282.41;4486513;32;19995;-82
2022/11/02 07:07:52;;;;;;;;;;;;;;;16.36;64.40;99279.00;4473567;32;19998;-82
2022/11/02 07:10:18;;;;;;;;;;;;;;;16.43;64.37;99277.59;4473065;32;19967;-82
2022/11/02 07:12:43;;;;;;;;;;;;;;;16.50;64.25;99284.19;4487820;32;20304;-82
2022/11/02 07:15:08;;;;;;;;;;;;;;;16.59;64.05;99290.69;4473322;32;20031;-82
2022/11/02 07:17:37;;;;;;;;;;;;;;;16.65;63.89;99284.91;4487546;31;20013;-82
2022/11/02 07:20:04;;;;;;;;;;;;;;;16.68;63.81;99281.16;4486521;32;19978;-82
2022/11/02 07:22:29;;;;;;;;;;;;;;;16.73;63.56;99284.34;4487521;31;19995;-82
2022/11/02 07:24:54;;;;;;;;;;;;;;;16.82;63.25;99282.84;4487552;32;19968;-82
2022/11/02 07:27:19;;;;;;;;;;;;;;;16.81;63.19;99284.66;4487375;32;20009;-82
2022/11/02 07:29:44;;;;;;;;;;;;;;;16.91;63.10;99276.87;4487384;32;19982;-82
2022/11/02 07:32:10;;;;;;;;;;;;;;;17.01;62.88;99275.22;4487362;32;19976;-82
2022/11/02 07:34:35;;;;;;;;;;;;;;;17.11;62.71;99278.06;4487448;32;19976;-82
2022/11/02 07:37:00;;;;;;;;;;;;;;;17.18;62.65;99273.16;4487259;32;20327;-82
2022/11/02 07:39:25;;;;;;;;;;;;;;;17.26;62.16;99284.06;4486236;32;20296;-82
2022/11/02 07:41:51;;;;;;;;;;;;;;;17.17;62.43;99295.41;4487270;32;20021;-82
2022/11/02 07:44:16;;;;;;;;;;;;;;;17.29;62.07;99291.84;4487283;31;20367;-82
2022/11/02 07:46:41;;;;;;;;;;;;;;;17.32;62.38;99290.75;4487555;32;19972;-82
2022/11/02 07:49:07;;;;;;;;;;;;;;;17.23;62.73;99298.47;4487285;32;19982;-82
2022/11/02 07:51:32;;;;;;;;;;;;;;;17.45;61.79;99292.37;4487302;31;19986;-82
2022/11/02 07:53:59;;;;;;;;;;;;;;;17.55;61.26;99289.03;4486421;32;19979;-82
2022/11/02 07:56:24;;;;;;;;;;;;;;;17.63;60.91;99290.13;4487498;31;19986;-82
2022/11/02 07:58:50;;;;;;;;;;;;;;;17.74;60.38;99288.50;4487524;32;20300;-82
2022/11/02 08:01:15;;;;;;;;;;;;;;;17.75;60.42;99288.38;4487540;32;19995;-82
2022/11/02 08:03:40;;;;;;;;;;;;;;;17.72;60.51;99285.94;4473156;32;20025;-82
2022/11/02 08:06:06;;;;;;;;;;;;;;;17.82;60.50;99278.94;4487490;31;20425;-82
2022/11/02 08:08:31;;;;;;;;;;;;;;;17.87;60.31;99283.97;4487397;31;20237;-82
2022/11/02 08:11:01;;;;;;;;;;;;;;;17.78;60.63;99288.12;4487429;32;20371;-82
2022/11/02 08:13:26;;;;;;;;;;;;;;;17.86;60.29;99284.91;4486189;32;19980;-82
2022/11/02 08:15:52;;;;;;;;;;;;;;;17.92;59.98;99286.25;4487401;32;20285;-83
2022/11/02 08:18:18;;;;;;;;;;;;;;;17.79;59.93;99286.31;4486215;32;19968;-82
2022/11/02 08:20:47;;;;;;;;;;;;;;;17.74;59.81;99285.84;4486133;32;20022;-82
2022/11/02 08:23:13;;;;;;;;;;;;;;;17.77;59.64;99288.25;4486294;32;19984;-83
2022/11/02 08:25:38;;;;;;;;;;;;;;;17.63;60.02;99287.47;4485907;32;19986;-82
2022/11/02 08:28:04;;;;;;;;;;;;;;;17.83;59.81;99285.13;4486840;31;19979;-82
2022/11/02 08:30:30;;;;;;;;;;;;;;;17.99;59.72;99288.34;4485717;32;19997;-82
2022/11/02 08:32:55;;;;;;;;;;;;;;;17.37;61.45;99288.62;4486853;31;19990;-82
2022/11/02 08:35:21;;;;;;;;;;;;;;;17.85;60.31;99292.06;4472371;32;19980;-82
2022/11/02 08:37:53;;;;;;;;;;;;;;;18.10;59.90;99287.50;4485702;32;19960;-82
2022/11/02 08:40:19;;;;;;;;;;;;;;;18.16;59.41;99281.69;4472536;32;19987;-82
2022/11/02 08:42:44;;;;;;;;;;;;;;;18.27;59.10;99286.16;4486890;31;20265;-82
2022/11/02 08:45:10;;;;;;;;;;;;;;;18.42;58.84;99294.78;4485461;32;19975;-83
2022/11/02 08:47:39;;;;;;;;;;;;;;;18.41;58.45;99287.78;4485622;32;19980;-82
2022/11/02 08:50:04;;;;;;;;;;;;;;;18.50;58.08;99284.34;4485471;32;20290;-82
2022/11/02 08:52:33;;;;;;;;;;;;;;;18.56;57.99;99283.91;4486557;31;20047;-82
2022/11/02 08:54:59;;;;;;;;;;;;;;;18.62;58.09;99287.84;4486723;32;20335;-82
2022/11/02 08:57:24;;;;;;;;;;;;;;;18.65;58.05;99287.63;4488576;32;19956;-82
2022/11/02 08:59:52;;;;;;;;;;;;;;;18.73;57.46;99287.84;4488635;32;20326;-82
2022/11/02 09:02:18;;;;;;;;;;;;;;;18.80;57.35;99286.44;4487347;32;19983;-82
2022/11/02 09:04:43;;;;;;;;;;;;;;;18.86;56.90;99279.75;4488499;31;19989;-82
2022/11/02 09:07:08;;;;;;;;;;;;;;;18.97;56.70;99285.06;4487336;32;19968;-82
2022/11/02 09:09:33;;;;;;;;;;;;;;;19.05;56.60;99279.94;4488461;32;19972;-82
2022/11/02 09:11:59;;;;;;;;;;;;;;;19.14;56.48;99270.34;4487173;32;20287;-82
2022/11/02 09:14:24;;;;;;;;;;;;;;;19.20;56.19;99275.16;4488509;31;19968;-82
2022/11/02 09:16:49;;;;;;;;;;;;;;;18.91;56.45;99274.91;4487286;32;19971;-82
2022/11/02 09:19:14;;;;;;;;;;;;;;;18.86;57.06;99282.41;4488508;32;20300;-82
2022/11/02 09:21:43;;;;;;;;;;;;;;;18.95;56.60;99279.00;4488366;32;19979;-82
2022/11/02 09:24:08;;;;;;;;;;;;;;;19.16;55.88;99273.72;4488448;31;20289;-82
2022/11/02 09:26:33;;;;;;;;;;;;;;;19.26;55.77;99276.50;4488238;31;19967;-82
2022/11/02 09:28:59;;;;;;;;;;;;;;;19.30;55.75;99275.25;4488383;32;20227;-82
2022/11/02 09:31:24;;;;;;;;;;;;;;;19.34;55.85;99273.19;4487121;32;20002;-82
2022/11/02 09:33:49;;;;;;;;;;;;;;;19.38;55.73;99274.63;4488249;32;19971;-83
2022/11/02 09:36:14;;;;;;;;;;;;;;;19.34;56.16;99273.19;4488285;31;19983;-82
2022/11/02 09:38:41;;;;;;;;;;;;;;;19.38;55.81;99275.47;4487153;32;19984;-82
2022/11/02 09:41:13;;;;;;;;;;;;;;;19.38;55.54;99266.59;4488329;31;20077;-82
2022/11/02 09:43:47;;;;;;;;;;;;;;;19.33;55.55;99266.12;4488351;31;19997;-82
2022/11/02 09:46:31;;;;;;;;;;;;;;;19.28;55.75;99266.53;4488286;32;19972;-82
2022/11/02 09:49:04;;;;;;;;;;;;;;;19.27;56.13;99274.66;4473848;32;20086;-82
2022/11/02 09:51:37;;;;;;;;;;;;;;;18.95;57.33;99280.81;4487008;32;19984;-83
2022/11/02 09:54:05;;;;;;;;;;;;;;;19.18;56.77;99266.44;4473907;32;20039;-82
2022/11/02 09:56:33;;;;;;;;;;;;;;;19.25;56.65;99269.44;4487004;32;19972;-82
2022/11/02 09:59:03;;;;;;;;;;;;;;;19.23;56.23;99271.38;4488174;32;20028;-82
2022/11/02 10:01:28;;;;;;;;;;;;;;;19.28;55.81;99266.53;4488170;31;19991;-82
2022/11/02 10:04:23;;;;;;;;;;;;;;;19.10;56.45;99274.22;4488122;31;20034;-82
2022/11/02 10:06:55;;;;;;;;;;;;;;;19.18;56.25;99273.56;4473504;31;20347;-82
2022/11/02 10:09:34;;;;;;;;;;;;;;;19.09;56.39;99269.03;4487240;32;19984;-82
2022/11/02 10:12:05;;;;;;;;;;;;;;;19.20;56.06;99266.28;4474243;32;20064;-82
2022/11/02 10:14:32;;;;;;;;;;;;;;;19.28;55.83;99271.00;4488011;32;20255;-82
2022/11/02 10:17:05;;;;;;;;;;;;;;;19.25;55.82;99272.94;4486723;32;20065;-82
2022/11/02 10:19:30;;;;;;;;;;;;;;;19.29;55.55;99268.19;4486860;32;19995;-82
2022/11/02 10:21:56;;;;;;;;;;;;;;;19.36;55.70;99271.22;4486584;32;19980;-82
2022/11/02 10:24:22;;;;;;;;;;;;;;;19.38;55.71;99271.94;4486813;32;19976;-82
2022/11/02 10:26:47;;;;;;;;;;;;;;;19.41;55.71;99269.00;4487765;31;20221;-82
2022/11/02 10:29:17;;;;;;;;;;;;;;;19.42;55.71;99273.38;4487842;32;19996;-82
2022/11/02 10:31:42;;;;;;;;;;;;;;;19.43;55.84;99265.25;4486746;32;19988;-82
2022/11/02 10:34:26;;;;;;;;;;;;;;;19.45;55.81;99252.59;4486724;32;19990;-82
2022/11/02 10:37:07;;;;;;;;;;;;;;;19.48;55.97;99266.69;4486843;32;19972;-82
2022/11/02 10:39:42;;;;;;;;;;;;;;;19.55;56.09;99266.03;4486634;32;20025;-82
2022/11/02 10:42:13;;;;;;;;;;;;;;;19.64;55.95;99262.59;4487890;32;19984;-82
2022/11/02 10:44:56;;;;;;;;;;;;;;;19.70;56.04;99263.03;4487833;32;19971;-82
2022/11/02 10:47:26;;;;;;;;;;;;;;;19.42;56.40;99263.53;4488179;31;19963;-82
2022/11/02 10:50:00;;;;;;;;;;;;;;;19.48;56.11;99269.34;4487811;31;20259;-82
2022/11/02 10:52:27;;;;;;;;;;;;;;;19.64;55.80;99259.03;4487509;32;19990;-82
2022/11/02 10:54:52;;;;;;;;;;;;;;;19.57;56.05;99260.56;4486706;32;19990;-82
2022/11/02 10:57:20;;;;;;;;;;;;;;;19.75;55.50;99261.69;4487734;32;20232;-82
2022/11/02 10:59:51;;;;;;;;;;;;;;;19.88;55.21;99264.19;4473478;32;20035;-82
2022/11/02 11:02:16;;;;;;;;;;;;;;;19.87;55.24;99266.97;4487956;31;19994;-82
2022/11/02 11:04:42;;;;;;;;;;;;;;;20.07;54.79;99262.56;4487672;32;19971;-82
2022/11/02 11:07:10;;;;;;;;;;;;;;;20.20;54.51;99263.22;4487725;31;19973;-82
2022/11/02 11:09:37;;;;;;;;;;;;;;;20.22;53.21;99258.56;4487721;32;20539;-82
2022/11/02 11:12:03;;;;;;;;;;;;;;;19.97;54.59;99260.72;4487556;31;19975;-82
2022/11/02 11:14:51;;;;;;;;;;;;;;;20.07;54.53;99260.78;4487647;32;20239;-83
2022/11/02 11:17:18;;;;;;;;;;;;;;;19.88;55.11;99261.50;4478794;32;20319;-82
2022/11/02 11:19:49;;;;;;;;;;;;;;;20.09;54.28;99265.97;4486738;32;20003;-83
2022/11/02 11:22:24;;;;;;;;;;;;;;;20.16;53.49;99269.81;4487944;32;20332;-82
2022/11/02 11:24:49;;;;;;;;;;;;;;;19.96;54.42;99264.34;4487536;32;20011;-82
2022/11/02 11:27:15;;;;;;;;;;;;;;;19.97;52.64;99265.19;4487364;32;19964;-82
2022/11/02 11:29:44;;;;;;;;;;;;;;;19.75;52.34;99261.69;4487451;31;19976;-82
2022/11/02 11:32:28;;;;;;;;;;;;;;;19.58;53.03;99270.25;4487363;31;20105;-82
2022/11/02 11:35:04;;;;;;;;;;;;;;;19.54;52.27;99268.84;4486359;32;19976;-82
2022/11/02 11:37:29;;;;;;;;;;;;;;;19.55;52.47;99274.06;4486328;32;19968;-82
2022/11/02 11:39:59;;;;;;;;;;;;;;;19.59;52.86;99275.50;4486153;32;20251;-82
2022/11/02 11:42:25;;;;;;;;;;;;;;;19.48;52.29;99270.19;4486325;32;20009;-82
2022/11/02 11:44:54;;;;;;;;;;;;;;;19.90;51.33;99267.56;4486325;32;19986;-82
2022/11/02 11:47:23;;;;;;;;;;;;;;;19.60;51.76;99265.62;4487330;32;20023;-82
2022/11/02 11:49:48;;;;;;;;;;;;;;;20.00;50.53;99262.28;4486182;32;19995;-83
2022/11/02 11:52:16;;;;;;;;;;;;;;;20.03;50.33;99268.22;4487197;31;20008;-82
2022/11/02 11:54:41;;;;;;;;;;;;;;;20.14;50.21;99269.94;4473016;32;19967;-82
2022/11/02 11:57:27;;;;;;;;;;;;;;;19.62;51.16;99272.56;4472856;32;20343;-82
2022/11/02 11:59:54;;;;;;;;;;;;;;;19.71;51.04;99264.75;4486128;32;19988;-82
2022/11/02 12:02:21;;;;;;;;;;;;;;;20.28;49.98;99254.50;4486214;32;19960;-82
2022/11/02 12:04:46;;;;;;;;;;;;;;;20.35;49.22;99240.47;4486120;32;20081;-82
2022/11/02 12:07:21;;;;;;;;;;;;;;;20.26;48.84;99237.75;4487189;31;20331;-82
2022/11/02 12:09:52;;;;;;;;;;;;;;;20.37;48.74;99238.50;4487197;32;19976;-83
2022/11/02 12:12:36;;;;;;;;;;;;;;;20.25;47.52;99241.44;4487193;31;19984;-82
2022/11/02 12:15:16;;;;;;;;;;;;;;;19.93;49.46;99232.53;4487191;31;19967;-82
2022/11/02 12:18:00;;;;;;;;;;;;;;;20.44;47.49;99233.47;4485977;32;19986;-82
2022/11/02 12:20:26;;;;;;;;;;;;;;;20.55;47.05;99230.69;4487402;31;20005;-83
2022/11/02 12:22:54;;;;;;;;;;;;;;;20.87;46.49;99226.13;4487327;31;19998;-83
2022/11/02 12:25:24;;;;;;;;;;;;;;;20.92;45.59;99227.41;4486972;32;20038;-83
2022/11/02 12:27:59;;;;;;;;;;;;;;;21.02;45.24;99214.88;4486712;31;19967;-82
2022/11/02 12:30:27;;;;;;;;;;;;;;;21.10;43.90;99214.16;4486260;32;19979;-83
2022/11/02 12:33:11;;;;;;;;;;;;;;;21.14;42.59;99212.91;4486956;31;19976;-82
2022/11/02 12:35:55;;;;;;;;;;;;;;;21.24;41.92;99212.91;4487090;32;20069;-83
2022/11/02 12:38:32;;;;;;;;;;;;;;;21.15;42.50;99208.37;4487215;31;19976;-83
2022/11/02 12:41:01;;;;;;;;;;;;;;;21.33;42.51;99205.84;4486024;32;19995;-83
2022/11/02 12:43:33;;;;;;;;;;;;;;;21.16;41.32;99210.91;4485926;32;19992;-83
2022/11/02 12:45:58;;;;;;;;;;;;;;;21.25;41.28;99205.69;4487141;32;20035;-83
2022/11/02 12:48:29;;;;;;;;;;;;;;;21.14;42.25;99204.84;4486558;32;20330;-83
2022/11/02 12:50:57;;;;;;;;;;;;;;;21.29;42.25;99196.41;4486621;32;20039;-83
2022/11/02 12:53:37;;;;;;;;;;;;;;;21.42;41.50;99204.97;4485207;32;20347;-82
2022/11/02 12:56:04;;;;;;;;;;;;;;;21.36;41.89;99201.06;4486584;32;20036;-83
2022/11/02 12:58:30;;;;;;;;;;;;;;;21.34;42.21;99197.69;4485416;32;19972;-83
2022/11/02 13:01:22;;;;;;;;;;;;;;;21.39;41.38;99206.13;4472133;32;19998;-83
2022/11/02 13:03:49;;;;;;;;;;;;;;;21.36;40.97;99206.41;4422416;32;20092;-82